createdAt,value
2023-07-02T00:01:24.882Z,8.45
2023-07-02T00:03:53.351Z,8.05
2023-07-02T00:06:21.773Z,9.93
2023-07-02T00:08:49.651Z,8.95
2023-07-02T00:11:17.912Z,12.05
2023-07-02T00:13:45.611Z,8.68
2023-07-02T00:16:13.861Z,14.65
2023-07-02T00:18:41.900Z,10.65
2023-07-02T00:21:14.552Z,13.85
2023-07-02T00:23:42.297Z,9.32
2023-07-02T00:26:11.740Z,13.80
2023-07-02T00:28:41.110Z,11.38
2023-07-02T00:31:09.869Z,12.45
2023-07-02T00:33:37.559Z,11.82
2023-07-02T00:36:05.501Z,10.73
2023-07-02T00:38:33.527Z,15.93
2023-07-02T00:43:29.434Z,11.80
2023-07-02T00:45:57.349Z,7.72
2023-07-02T00:50:53.422Z,9.98
2023-07-02T00:53:21.990Z,10.68
2023-07-02T00:55:50.077Z,10.23
2023-07-02T00:58:17.870Z,6.88
2023-07-02T01:03:14.584Z,11.38
2023-07-02T01:05:42.940Z,11.63
2023-07-02T01:08:13.490Z,12.07
2023-07-02T01:10:43.605Z,11.35
2023-07-02T01:13:16.117Z,13.32
2023-07-02T01:15:45.239Z,15.57
2023-07-02T01:18:16.174Z,11.98
2023-07-02T01:20:45.270Z,12.45
2023-07-02T01:23:13.575Z,14.23
2023-07-02T01:28:09.137Z,12.70
2023-07-02T01:30:45.482Z,11.63
2023-07-02T01:33:13.654Z,12.68
2023-07-02T01:38:12.187Z,8.40
2023-07-02T01:40:39.728Z,7.13
2023-07-02T01:43:08.065Z,12.43
2023-07-02T01:45:36.208Z,13.50
2023-07-02T01:48:04.396Z,12.05
2023-07-02T01:50:33.242Z,9.75
2023-07-02T01:53:01.566Z,7.65
2023-07-02T01:55:31.610Z,10.68
2023-07-02T01:57:59.643Z,12.30
2023-07-02T02:02:55.249Z,5.78
2023-07-02T02:07:51.597Z,11.85
2023-07-02T02:10:19.245Z,11.57
2023-07-02T02:12:47.358Z,8.23
2023-07-02T02:15:15.723Z,8.30
2023-07-02T02:17:43.485Z,12.52
2023-07-02T02:20:13.051Z,6.65
2023-07-02T02:22:40.957Z,10.50
2023-07-02T02:25:09.402Z,10.93
2023-07-02T02:27:37.183Z,10.45
2023-07-02T02:30:05.928Z,8.55
2023-07-02T02:32:36.054Z,10.75
2023-07-02T02:35:05.009Z,12.00
2023-07-02T02:37:36.822Z,9.77
2023-07-02T02:40:06.944Z,10.57
2023-07-02T02:42:35.261Z,12.35
2023-07-02T02:45:03.686Z,11.40
2023-07-02T02:47:31.788Z,12.25
2023-07-02T02:50:01.227Z,12.95
2023-07-02T02:52:29.011Z,12.07
2023-07-02T02:54:57.186Z,10.48
2023-07-02T02:57:24.982Z,14.93
2023-07-02T02:59:52.962Z,8.68
2023-07-02T03:02:21.517Z,10.73
2023-07-02T03:04:50.624Z,10.95
2023-07-02T03:07:18.654Z,12.77
2023-07-02T03:14:41.966Z,14.63
2023-07-02T03:17:10.217Z,13.05
2023-07-02T03:19:39.057Z,14.02
2023-07-02T03:22:07.314Z,11.20
2023-07-02T03:27:02.851Z,13.90
2023-07-02T03:29:31.083Z,12.27
2023-07-02T03:34:26.806Z,13.98
2023-07-02T03:36:54.893Z,13.45
2023-07-02T03:41:51.788Z,13.77
2023-07-02T03:44:20.852Z,12.85
2023-07-02T03:46:51.769Z,15.10
2023-07-02T03:49:19.870Z,13.48
2023-07-02T03:54:15.453Z,11.38
2023-07-02T03:56:43.804Z,12.43
2023-07-02T04:01:39.301Z,13.35
2023-07-02T04:04:07.283Z,12.52
2023-07-02T04:06:35.485Z,13.20
2023-07-02T04:11:30.696Z,11.57
2023-07-02T04:13:58.657Z,12.38
2023-07-02T04:16:26.991Z,15.00
2023-07-02T04:18:55.038Z,12.45
2023-07-02T04:21:22.590Z,10.98
2023-07-02T04:23:50.321Z,12.20
2023-07-02T04:27:01.698Z,12.30
2023-07-02T04:29:06.784Z,16.77
2023-07-02T04:31:35.087Z,13.02
2023-07-02T04:34:03.554Z,18.08
2023-07-02T04:36:31.724Z,9.43
2023-07-02T04:38:59.453Z,12.35
2023-07-02T04:41:28.538Z,10.45
2023-07-02T04:43:56.440Z,15.88
2023-07-02T04:46:24.620Z,17.13
2023-07-02T04:48:53.146Z,14.02
2023-07-02T04:51:22.657Z,13.50
2023-07-02T04:53:50.299Z,8.63
2023-07-02T04:56:18.652Z,16.08
2023-07-02T04:58:46.598Z,15.02
2023-07-02T05:03:46.131Z,14.55
2023-07-02T05:06:14.216Z,15.60
2023-07-02T05:11:12.276Z,13.85
2023-07-02T05:13:39.859Z,10.45
2023-07-02T05:16:08.265Z,13.93
2023-07-02T05:18:36.028Z,9.20
2023-07-02T05:21:04.136Z,10.25
2023-07-02T05:23:32.019Z,11.68
2023-07-02T05:26:00.005Z,9.95
2023-07-02T05:28:28.020Z,9.52
2023-07-02T05:30:55.788Z,9.77
2023-07-02T05:33:23.797Z,7.80
2023-07-02T05:38:20.215Z,10.88
2023-07-02T05:40:48.410Z,9.95
2023-07-02T05:43:16.372Z,8.55
2023-07-02T05:45:44.475Z,11.93
2023-07-02T05:48:12.016Z,11.15
2023-07-02T05:50:40.337Z,9.75
2023-07-02T05:53:07.859Z,13.23
2023-07-02T05:55:37.346Z,10.15
2023-07-02T05:58:05.917Z,10.75
2023-07-02T06:00:33.935Z,12.30
2023-07-02T06:03:02.230Z,10.88
2023-07-02T06:05:30.691Z,11.50
2023-07-02T06:07:59.047Z,14.60
2023-07-02T06:10:26.534Z,8.90
2023-07-02T06:12:54.726Z,11.70
2023-07-02T06:17:50.593Z,10.45
2023-07-02T06:20:18.214Z,7.18
2023-07-02T06:22:45.945Z,7.88
2023-07-02T06:25:14.074Z,12.13
2023-07-02T06:30:09.663Z,14.07
2023-07-02T06:35:07.434Z,8.23
2023-07-02T06:37:35.209Z,13.93
2023-07-02T06:40:03.289Z,10.82
2023-07-02T06:42:31.021Z,11.68
2023-07-02T06:44:59.031Z,13.23
2023-07-02T06:49:54.519Z,15.80
2023-07-02T06:52:22.302Z,13.98
2023-07-02T06:54:50.393Z,15.38
2023-07-02T06:59:46.916Z,14.05
2023-07-02T07:02:15.625Z,11.00
2023-07-02T07:04:43.491Z,12.02
2023-07-02T07:07:11.692Z,17.67
2023-07-02T07:09:39.366Z,15.82
2023-07-02T07:12:07.500Z,12.65
2023-07-02T07:17:02.741Z,11.35
2023-07-02T07:19:30.464Z,12.57
2023-07-02T07:21:59.044Z,8.70
2023-07-02T07:24:27.051Z,11.75
2023-07-02T07:29:23.852Z,8.63
2023-07-02T07:31:51.725Z,11.70
2023-07-02T07:34:19.868Z,10.38
2023-07-02T07:39:15.133Z,10.75
2023-07-02T07:44:11.649Z,9.88
2023-07-02T07:46:39.775Z,12.93
2023-07-02T07:49:07.546Z,11.27
2023-07-02T07:51:36.987Z,12.15
2023-07-02T07:54:04.950Z,8.93
2023-07-02T07:56:32.912Z,4.07
2023-07-02T07:59:00.577Z,11.65
2023-07-02T08:01:29.424Z,9.43
2023-07-02T08:03:57.743Z,10.63
2023-07-02T08:06:25.621Z,10.07
2023-07-02T08:08:53.192Z,7.18
2023-07-02T08:11:20.921Z,5.95
2023-07-02T08:13:48.892Z,8.63
2023-07-02T08:16:16.729Z,7.57
2023-07-02T08:26:08.005Z,12.60
2023-07-02T08:28:36.096Z,8.95
2023-07-02T08:31:03.877Z,7.07
2023-07-02T08:33:31.693Z,10.10
2023-07-02T08:35:59.341Z,10.27
2023-07-02T08:38:27.049Z,5.15
2023-07-02T08:40:55.243Z,10.77
2023-07-02T08:45:51.231Z,11.30
2023-07-02T08:48:23.633Z,8.32
2023-07-02T08:50:52.074Z,9.30
2023-07-02T08:53:26.838Z,7.82
2023-07-02T08:55:54.498Z,7.03
2023-07-02T08:58:22.936Z,8.20
2023-07-02T09:01:10.571Z,8.65
2023-07-02T09:03:39.805Z,8.30
2023-07-02T09:06:09.525Z,8.85
2023-07-02T09:08:37.584Z,11.35
2023-07-02T09:11:09.677Z,8.45
2023-07-02T09:14:00.020Z,5.82
2023-07-02T09:16:38.263Z,7.78
2023-07-02T09:19:13.861Z,8.60
2023-07-02T09:21:44.803Z,7.70
2023-07-02T09:24:16.847Z,8.73
2023-07-02T09:26:51.993Z,8.20
2023-07-02T09:29:31.209Z,12.35
2023-07-02T09:34:33.806Z,8.70
2023-07-02T09:37:03.685Z,5.78
2023-07-02T09:39:35.404Z,8.98
2023-07-02T09:42:06.898Z,8.68
2023-07-02T09:44:36.058Z,5.38
2023-07-02T09:47:11.457Z,8.52
2023-07-02T09:49:42.261Z,7.03
2023-07-02T09:52:11.799Z,7.43
2023-07-02T09:54:40.085Z,7.90
2023-07-02T09:57:08.524Z,6.10
2023-07-02T09:59:36.884Z,11.90
2023-07-02T10:02:05.094Z,7.32
2023-07-02T10:04:56.060Z,7.32
2023-07-02T10:07:32.076Z,6.63
2023-07-02T10:10:00.235Z,7.35
2023-07-02T10:12:31.795Z,4.93
2023-07-02T10:15:00.419Z,8.65
2023-07-02T10:17:30.518Z,2.83
2023-07-02T10:20:00.706Z,4.00
2023-07-02T10:22:29.013Z,8.88
2023-07-02T10:25:01.990Z,4.28
2023-07-02T10:27:39.768Z,5.28
2023-07-02T10:30:09.500Z,4.40
2023-07-02T10:32:43.059Z,5.60
2023-07-02T10:35:20.364Z,7.63
2023-07-02T10:37:48.057Z,8.93
2023-07-02T10:40:16.163Z,8.00
2023-07-02T10:42:53.736Z,6.18
2023-07-02T10:45:31.660Z,6.63
2023-07-02T10:52:55.612Z,7.20
2023-07-02T10:58:07.312Z,3.13
2023-07-02T11:00:45.731Z,4.72
2023-07-02T11:03:27.094Z,4.93
2023-07-02T11:05:55.880Z,5.10
2023-07-02T11:08:26.134Z,4.82
2023-07-02T11:11:06.416Z,2.45
2023-07-02T11:13:34.114Z,4.03
2023-07-02T11:16:01.718Z,6.40
2023-07-02T11:18:33.110Z,6.43
2023-07-02T11:21:12.324Z,2.90
2023-07-02T11:23:40.313Z,4.40
2023-07-02T11:31:09.044Z,4.20
2023-07-02T11:33:41.537Z,5.68
2023-07-02T11:36:22.194Z,4.30
2023-07-02T11:38:50.665Z,5.88
2023-07-02T11:41:21.627Z,7.55
2023-07-02T11:43:49.930Z,2.20
2023-07-02T11:48:46.168Z,3.80
2023-07-02T11:51:14.236Z,4.45
2023-07-02T11:53:41.846Z,3.30
2023-07-02T11:56:09.777Z,2.80
2023-07-02T12:01:06.480Z,5.28
2023-07-02T12:03:34.152Z,4.18
2023-07-02T12:06:02.101Z,5.10
2023-07-02T12:15:56.984Z,5.07
2023-07-02T12:18:25.221Z,2.60
2023-07-02T12:20:53.071Z,6.68
2023-07-02T12:23:21.782Z,2.40
2023-07-02T12:25:50.227Z,3.70
2023-07-02T12:28:18.013Z,7.65
2023-07-02T12:30:46.224Z,5.75
2023-07-02T12:33:14.277Z,4.47
2023-07-02T12:35:42.352Z,9.65
2023-07-02T12:38:10.001Z,4.93
2023-07-02T12:40:37.781Z,4.28
2023-07-02T12:50:29.672Z,4.70
2023-07-02T12:52:57.662Z,5.28
2023-07-02T13:00:22.178Z,8.70
2023-07-02T13:03:02.918Z,3.90
2023-07-02T13:05:33.140Z,7.15
2023-07-02T13:08:01.008Z,4.90
2023-07-02T13:10:30.983Z,4.55
2023-07-02T13:13:03.739Z,4.05
2023-07-02T13:15:38.259Z,4.13
2023-07-02T13:20:34.077Z,5.63
2023-07-02T13:25:29.688Z,3.17
2023-07-02T13:27:57.400Z,2.80
2023-07-02T13:30:25.778Z,5.38
2023-07-02T13:32:53.930Z,5.15
2023-07-02T13:35:23.652Z,4.25
2023-07-02T13:37:51.577Z,5.30
2023-07-02T13:45:15.125Z,4.15
2023-07-02T13:47:43.364Z,3.50
2023-07-02T13:50:11.510Z,2.53
2023-07-02T13:52:39.237Z,2.50
2023-07-02T13:55:07.438Z,4.20
2023-07-02T13:57:36.583Z,5.53
2023-07-02T14:02:33.716Z,5.68
2023-07-02T14:05:01.670Z,5.63
2023-07-02T14:07:29.539Z,4.78
2023-07-02T14:14:52.424Z,3.63
2023-07-02T14:17:20.610Z,3.95
2023-07-02T14:19:48.288Z,4.40
2023-07-02T14:22:16.360Z,2.05
2023-07-02T14:24:43.938Z,4.93
2023-07-02T14:27:11.725Z,8.27
2023-07-02T14:29:39.392Z,5.25
2023-07-02T14:32:07.922Z,10.13
2023-07-02T14:34:36.670Z,9.73
2023-07-02T14:37:05.066Z,7.20
2023-07-02T14:39:32.927Z,6.85
2023-07-02T14:42:01.251Z,6.63
2023-07-02T14:44:28.903Z,2.80
2023-07-02T14:49:25.591Z,8.35
2023-07-02T14:51:53.662Z,5.75
2023-07-02T14:54:21.360Z,5.38
2023-07-02T14:56:49.170Z,4.70
2023-07-02T15:01:45.936Z,5.55
2023-07-02T15:04:13.992Z,7.20
2023-07-02T15:06:42.736Z,4.38
2023-07-02T15:09:10.507Z,3.85
2023-07-02T15:16:35.339Z,2.95
2023-07-02T15:19:03.837Z,4.90
2023-07-02T15:21:31.868Z,6.43
2023-07-02T15:23:59.866Z,6.70
2023-07-02T15:28:55.486Z,6.28
2023-07-02T15:33:51.188Z,4.38
2023-07-02T15:36:22.646Z,5.75
2023-07-02T15:38:50.919Z,5.72
2023-07-02T15:41:23.363Z,6.18
2023-07-02T15:43:53.367Z,4.15
2023-07-02T15:46:21.177Z,8.48
2023-07-02T15:48:51.590Z,4.68
2023-07-02T15:51:19.560Z,6.97
2023-07-02T15:58:42.402Z,3.42
2023-07-02T16:01:17.974Z,3.17
2023-07-02T16:03:46.638Z,5.40
2023-07-02T16:06:15.716Z,3.60
2023-07-02T16:08:44.930Z,5.20
2023-07-02T16:11:14.742Z,4.95
2023-07-02T16:13:44.339Z,6.25
2023-07-02T16:16:12.329Z,6.50
2023-07-02T16:18:40.272Z,7.05
2023-07-02T16:21:08.400Z,5.93
2023-07-02T16:23:36.401Z,5.57
2023-07-02T16:26:06.599Z,8.68
2023-07-02T16:28:36.372Z,6.70
2023-07-02T16:31:04.678Z,4.75
2023-07-02T16:33:34.618Z,5.10
2023-07-02T16:36:09.213Z,5.72
2023-07-02T16:38:38.291Z,4.13
2023-07-02T16:41:07.521Z,5.80
2023-07-02T16:43:36.563Z,4.90
2023-07-02T16:46:05.452Z,2.85
2023-07-02T16:48:33.343Z,4.50
2023-07-02T16:53:33.150Z,5.97
2023-07-02T16:56:02.460Z,5.85
2023-07-02T16:58:31.653Z,9.18
2023-07-02T17:01:11.408Z,5.43
2023-07-02T17:03:39.809Z,7.88
2023-07-02T17:06:08.529Z,5.35
2023-07-02T17:08:42.631Z,8.57
2023-07-02T17:11:12.330Z,3.22
2023-07-02T17:13:40.613Z,7.22
2023-07-02T17:16:11.666Z,7.25
2023-07-02T17:18:39.288Z,4.47
2023-07-02T17:21:07.333Z,10.20
2023-07-02T17:23:35.190Z,6.07
2023-07-02T17:26:07.934Z,8.40
2023-07-02T17:28:36.800Z,4.43
2023-07-02T17:31:05.713Z,8.95
2023-07-02T17:33:37.714Z,8.40
2023-07-02T17:36:05.666Z,12.20
2023-07-02T17:38:33.779Z,8.52
2023-07-02T17:41:02.797Z,5.78
2023-07-02T17:43:31.523Z,9.90
2023-07-02T17:45:59.313Z,9.15
2023-07-02T17:51:00.404Z,9.13
2023-07-02T17:53:30.396Z,5.20
2023-07-02T17:55:59.163Z,5.20
2023-07-02T17:58:27.302Z,8.73
2023-07-02T18:00:55.066Z,7.75
2023-07-02T18:03:23.435Z,6.03
2023-07-02T18:05:52.683Z,8.70
2023-07-02T18:08:20.915Z,4.97
2023-07-02T18:13:22.791Z,5.75
2023-07-02T18:15:52.480Z,8.50
2023-07-02T18:18:21.389Z,7.13
2023-07-02T18:20:50.705Z,5.65
2023-07-02T18:23:19.101Z,8.07
2023-07-02T18:25:47.319Z,8.63
2023-07-02T18:28:15.572Z,4.82
2023-07-02T18:30:45.212Z,7.03
2023-07-02T18:33:13.226Z,7.95
2023-07-02T18:38:11.331Z,9.13
2023-07-02T18:43:09.825Z,5.75
2023-07-02T18:45:40.219Z,6.10
2023-07-02T18:48:12.857Z,8.10
2023-07-02T18:53:30.040Z,7.80
2023-07-02T18:56:02.935Z,6.10
2023-07-02T18:58:32.277Z,5.78
2023-07-02T19:01:00.876Z,8.70
2023-07-02T19:03:28.591Z,5.25
2023-07-02T19:05:56.304Z,7.35
2023-07-02T19:08:24.210Z,7.97
2023-07-02T19:13:29.753Z,6.40
2023-07-02T19:15:58.383Z,9.38
2023-07-02T19:18:27.660Z,8.93
2023-07-02T19:21:00.111Z,9.38
2023-07-02T19:23:35.015Z,8.20
2023-07-02T19:26:03.242Z,6.20
2023-07-02T19:28:31.515Z,7.70
2023-07-02T19:31:05.793Z,9.00
2023-07-02T19:33:34.876Z,8.32
2023-07-02T19:36:08.156Z,6.43
2023-07-02T19:38:42.796Z,4.82
2023-07-02T19:41:25.978Z,6.80
2023-07-02T19:46:37.934Z,8.40
2023-07-02T19:49:13.284Z,4.47
2023-07-02T19:51:48.212Z,3.00
2023-07-02T19:54:20.202Z,5.88
2023-07-02T19:56:50.975Z,5.25
2023-07-02T19:59:24.417Z,8.38
2023-07-02T20:01:52.598Z,3.72
2023-07-02T20:06:51.244Z,8.70
2023-07-02T20:09:18.973Z,10.00
2023-07-02T20:11:47.108Z,7.63
2023-07-02T20:14:17.203Z,7.97
2023-07-02T20:16:45.788Z,4.35
2023-07-02T20:19:13.475Z,4.35
2023-07-02T20:24:10.283Z,3.58
2023-07-02T20:26:38.462Z,5.90
2023-07-02T20:29:08.041Z,5.97
2023-07-02T20:31:39.127Z,8.25
2023-07-02T20:36:38.007Z,6.90
2023-07-02T20:39:07.603Z,7.38
2023-07-02T20:41:35.755Z,7.75
2023-07-02T20:44:04.881Z,5.25
2023-07-02T20:46:35.261Z,7.20
2023-07-02T20:49:06.310Z,9.88
2023-07-02T20:51:34.548Z,4.10
2023-07-02T20:54:02.678Z,6.85
2023-07-02T20:56:31.308Z,5.50
2023-07-02T20:59:00.320Z,5.20
2023-07-02T21:01:28.430Z,2.60
2023-07-02T21:03:57.274Z,8.95
2023-07-02T21:06:26.804Z,8.88
2023-07-02T21:08:55.085Z,9.82
2023-07-02T21:11:33.763Z,9.35
2023-07-02T21:14:03.561Z,5.35
2023-07-02T21:16:32.344Z,6.88
2023-07-02T21:19:01.110Z,5.57
2023-07-02T21:21:30.196Z,10.98
2023-07-02T21:23:58.317Z,7.97
2023-07-02T21:26:26.374Z,9.48
2023-07-02T21:28:55.028Z,6.03
2023-07-02T21:31:23.046Z,9.07
2023-07-02T21:33:51.837Z,6.93
2023-07-02T21:36:21.042Z,8.95
2023-07-02T21:38:49.666Z,7.28
2023-07-02T21:41:18.129Z,7.93
2023-07-02T21:43:49.182Z,6.40
2023-07-02T21:46:24.772Z,8.02
2023-07-02T21:51:42.939Z,6.25
2023-07-02T21:54:10.929Z,6.07
2023-07-02T21:56:40.900Z,5.43
2023-07-02T21:59:20.951Z,5.93
2023-07-02T22:01:57.309Z,5.70
2023-07-02T22:04:25.872Z,8.82
2023-07-02T22:06:57.476Z,6.60
2023-07-02T22:09:30.681Z,7.28
2023-07-02T22:11:59.128Z,6.22
2023-07-02T22:14:27.270Z,6.38
2023-07-02T22:19:32.885Z,5.72
2023-07-02T22:22:03.597Z,6.10
2023-07-02T22:24:32.440Z,7.40
2023-07-02T22:27:00.595Z,5.47
2023-07-02T22:29:28.569Z,3.30
2023-07-02T22:31:57.415Z,2.55
2023-07-02T22:34:25.735Z,4.05
2023-07-02T22:36:54.216Z,6.13
2023-07-02T22:39:21.983Z,5.10
2023-07-02T22:41:50.910Z,4.10
2023-07-02T22:44:20.174Z,4.75
2023-07-02T22:46:48.270Z,4.30
2023-07-02T22:49:16.235Z,8.65
2023-07-02T22:51:44.018Z,5.05
2023-07-02T22:54:12.964Z,3.83
2023-07-02T22:56:41.036Z,5.28
2023-07-02T23:01:37.645Z,7.20
2023-07-02T23:04:05.891Z,8.25
2023-07-02T23:06:33.935Z,8.77
2023-07-02T23:09:01.707Z,5.32
2023-07-02T23:11:30.082Z,6.60
2023-07-02T23:13:59.557Z,8.00
2023-07-02T23:16:27.397Z,7.68
2023-07-02T23:21:23.509Z,6.40
2023-07-02T23:23:51.776Z,5.85
2023-07-02T23:26:19.856Z,11.13
2023-07-02T23:28:55.311Z,9.43
2023-07-02T23:31:25.481Z,9.60
2023-07-02T23:33:54.485Z,9.98
2023-07-02T23:36:22.760Z,8.38
2023-07-02T23:38:54.578Z,6.93
2023-07-02T23:41:23.937Z,10.90
2023-07-02T23:43:52.289Z,4.80
2023-07-02T23:48:53.684Z,4.75
2023-07-02T23:51:21.645Z,11.77
2023-07-02T23:53:52.902Z,7.72
2023-07-02T23:56:20.552Z,9.27
2023-07-02T23:58:48.686Z,9.02
